x

Edisto - 41 Nm Southeast Of Charleston, Sc (41004) Wave Buoy

11:50am - Wed 1st Oct 2014 All times are EDT. -4 hours from GMT.

  • Sig Wave height 2.6ft
  • Swell Direction
  • Peak Period 6s
  • Average Period 5s
  • Wind
    11mph, 13mph gusts
  • Sea Temp 81°f
  • Air Temp 77°f
  • Sea Pressure 1015.2mb
  • Edisto - 41 Nm Southeast Of Charleston, Sc
  • Edisto - 41 Nm Southeast Of Charleston, Sc

More Historic Weather Station data

Upgrade to MSW Pro to gain access to the past 30 days of data for over 8000 Wavebouys and Weather Stations around the globe.

Join Pro

Comparision Forecast

View Surf forecast
   
Wed 10/01 11:50am 2.5ft 6s 5s 11 13 mph 1015.2mb 81f 77f
10:50am 2.5ft 6s 5s 11 13 mph 1014.9mb 81f 77f
9:50am 2.5ft 5s 5s 11 16 mph 1014.3mb 81f 77f
8:50am 3ft 6s 5s 11 16 mph 1013.7mb 81f 77f
7:50am 2.5ft 5s 5s 9 13 mph 1013.3mb 81f 77f
6:50am 3ft 7s 5s 9 11 mph 1012.5mb 81f 77f
5:50am 3ft 6s 5s 9 11 mph 1011.9mb 81f 76f
4:50am 3ft 6s 5s 9 11 mph 1011.4mb 81f 76f
3:50am 3ft 6s 5s 9 11 mph 1011.2mb 81f 76f
2:50am 3ft 6s 5s 9 11 mph 1011.4mb 81f 77f
1:50am 3.5ft 6s 5s 9 11 mph 1011.4mb 81f 77f
12:50am 3ft 6s 5s 9 11 mph 1011.5mb 81f 77f
Tue 09/30 11:50pm 3.5ft 6s 5s 9 11 mph 1011.5mb 81f 77f
10:50pm 3.5ft 6s 5s 9
mph
1011.7mb 81f 77f
9:50pm 3.5ft 6s 5s 9 11 mph 1011.4mb 81f 77f
8:50pm 3.5ft 6s 5s 11 13 mph 1011.1mb 81f 77f
7:50pm 4ft 6s 5s 13 16 mph 1010.5mb 81f 77f
6:50pm 4ft 6s 5s 13 16 mph 1010.1mb 81f 76f
5:50pm 4ft 6s 5s 16 20 mph 1009.7mb 81f 76f
4:50pm 4.5ft 5s 5s 18 22 mph 1009.4mb 81f 76f
3:50pm 4.5ft 6s 5s 16 20 mph 1009.5mb 81f 75f
2:50pm 4.5ft 6s 5s 18 20 mph 1009.4mb 81f 75f
1:50pm 4.5ft 6s 5s 18 22 mph 1009.8mb 81f 75f
12:50pm 4.5ft 6s 5s 18 22 mph 1010.3mb 81f 74f
11:50am 4.5ft 6s 5s 20 25 mph 1010.4mb 81f 75f
10:50am 4.5ft 6s 5s 20 25 mph 1010.5mb 81f 75f
9:50am 4.5ft 6s 5s 20 22 mph 1010.4mb 81f 75f
8:50am 4.5ft 6s 5s 20 25 mph 1010.2mb 81f 75f
7:50am 5ft 6s 5s 20 25 mph 1009.7mb 81f 75f
6:50am 5ft 6s 5s 20 25 mph 1009.5mb 81f 75f
5:50am 5ft 6s 5s 22 25 mph 1009mb 81f 75f
4:50am 5ft 6s 5s 22 25 mph 1009mb 81f 76f
3:50am 4.5ft 6s 5s 18 20 mph 1009.2mb 81f 77f
2:50am 4.5ft 6s 5s 16 20 mph 1009.8mb 81f 76f
1:50am 5ft 6s 5s 18 22 mph 1010.1mb 81f 76f
12:50am 5ft 6s 5s 9 11 mph 1010.9mb 81f 74f
Mon 09/29 11:50pm 5ft 6s 5s 18 20 mph 1011.3mb 81f 73f
10:50pm 6ft 6s 5s 20 25 mph 1011.4mb 81f 75f
9:50pm 5.5ft 6s 5s 25 29 mph 1011.5mb 81f 75f
8:50pm 4.5ft 6s 5s 25 29 mph 1011.5mb 81f 75f
7:50pm 3.5ft 5s 4s 13 16 mph 1011.8mb 81f 75f
6:50pm 2.5ft 8s 4s 13 18 mph 1012mb 81f 75f
5:50pm 2.5ft 7s 5s 13 16 mph 1011.8mb 81f 76f
4:50pm 3ft 8s 4s 13 18 mph 1011.8mb 81f 75f
3:50pm 3.5ft 7s 5s 18 20 mph 1012mb 81f 75f
2:50pm 3.5ft 4s 4s 16 18 mph 1012.2mb 81f 76f
1:50pm 3.5ft 8s 5s 18 20 mph 1012.4mb 82f 76f
12:50pm 3.5ft 7s 5s 16 20 mph 1013.1mb 82f 76f
11:50am 3ft 8s 5s 18 20 mph 1013.3mb 82f 77f
10:50am 3ft 8s 5s 16 18 mph 1013.6mb 82f 78f
9:50am 3ft 8s 4s 16 18 mph 1013.7mb 82f 79f
8:50am 3.5ft 7s 4s 16 18 mph 1013.9mb 82f 79f
7:50am 3.5ft 8s 4s 13 18 mph 1013.9mb 81f 78f
6:50am 3.5ft 5s 5s 16 18 mph 1013.8mb 81f 77f
5:50am 3.5ft 7s 4s 16 18 mph 1013.8mb 82f 78f
4:50am 3.5ft 5s 5s 16 18 mph 1013.8mb 82f 77f
3:50am 4ft 5s 5s 18 20 mph 1013.8mb 82f 77f
2:50am 4.5ft 5s 5s 18 20 mph 1014.4mb 82f 77f
1:50am 4.5ft 5s 5s 18 20 mph 1015mb 82f 77f
12:50am 4.5ft 6s 5s 18 20 mph 1015.4mb 82f 78f
Sun 09/28 11:50pm 4.5ft 6s 5s 20 25 mph 1015.5mb 82f 78f
10:50pm 4ft 6s 5s 18 22 mph 1015.7mb 82f 78f
9:50pm 4ft 6s 5s 18 20 mph 1016mb 82f 79f
8:50pm 4.5ft 6s 5s 18 20 mph 1015.7mb 82f 79f
7:50pm 3.5ft 6s 5s 16 20 mph 1015.5mb 82f 80f
6:50pm 4ft 6s 5s 13 18 mph 1015.5mb 82f 79f
5:50pm 4ft 7s 5s 16 18 mph 1015.2mb 82f 79f
4:50pm 4ft 6s 5s 7 13 mph 1015.4mb 82f 79f
3:50pm 4ft 6s 5s 9 11 mph 1015.7mb 82f 79f
2:50pm 4ft 6s 5s 7 9 mph 1016.3mb 82f 80f
1:50pm 4ft 7s 5s 9 11 mph 1016.9mb 82f 79f
12:50pm 3.5ft 7s 5s 9 11 mph 1017.5mb 82f 79f
11:50am 4ft 6s 5s 11 13 mph 1017.6mb 82f 78f
10:50am 4.5ft 6s 5s 13 16 mph 1017.9mb 82f 78f
9:50am 4.5ft 7s 5s 16 20 mph 1017.7mb 82f 77f
8:50am 4.5ft 6s 5s 16 18 mph 1017.9mb 81f 76f
7:50am 5ft 6s 5s 13 16 mph 1017.9mb 81f 74f
6:50am 4.5ft 7s 5s 16 18 mph 1017.3mb 82f 77f
5:50am 5ft 7s 5s 18 20 mph 1016.9mb 82f 78f
3:50am 5.5ft 6s 5s 16 18 mph 1016.9mb 82f 78f
2:50am 5.5ft 7s 5s 9 11 mph 1017.1mb 82f 78f
1:50am 6ft 7s 5s 9 11 mph 1017.2mb 82f 77f
12:50am 6ft 7s 5s 9 11 mph 1017.2mb 82f 78f
Sat 09/27 11:50pm 5ft 6s 5s 16 18 mph 1017.5mb 82f 79f
10:50pm 5.5ft 7s 5s 11 13 mph 1017.6mb 82f 78f
9:50pm 6ft 6s 5s 16 20 mph 1017.6mb 82f 77f
8:50pm 5.5ft 6s 5s 22 27 mph 1016.9mb 82f 77f
7:50pm 5.5ft 6s 5s 25 27 mph 1016.3mb 81f 77f
6:50pm 5.5ft 6s 5s 25 27 mph 1016mb 81f 77f
5:50pm 5ft 6s 5s 22 25 mph 1016.2mb 81f 78f